Time;durP1;ratioP1;P1;durP2;ratioP2;P2;SDS_P1;SDS_P2;PMS_P1;PMS_P2;Temp;Humidity;BMP_temperature;BMP_pressure;BME280_temperature;BME280_humidity;BME280_pressure;Samples;Min_cycle;Max_cycle;Signal;HPM_P1;HPM_P2
2023/06/02 00:00:42;;;;;;;12.57;5.57;;;14.60;99.90;;;;;;5037191;28;20484;-78
2023/06/02 00:03:08;;;;;;;7.50;6.00;;;14.60;99.90;;;;;;5029252;28;20763;-76
2023/06/02 00:05:34;;;;;;;10.97;6.37;;;14.60;99.90;;;;;;5024345;28;20179;-79
2023/06/02 00:08:02;;;;;;;7.07;5.37;;;14.70;99.90;;;;;;5032736;28;20430;-77
2023/06/02 00:10:28;;;;;;;5.93;4.90;;;14.70;99.90;;;;;;5028046;28;20453;-79
2023/06/02 00:12:53;;;;;;;17.23;4.83;;;14.70;99.90;;;;;;5012391;28;20433;-78
2023/06/02 00:15:19;;;;;;;7.47;6.30;;;14.80;99.90;;;;;;5023370;28;20185;-77
2023/06/02 00:17:45;;;;;;;5.90;4.73;;;14.80;99.90;;;;;;5025986;28;20313;-82
2023/06/02 00:20:10;;;;;;;6.77;4.80;;;14.80;99.90;;;;;;5034992;28;20199;-79
2023/06/02 00:22:38;;;;;;;10.20;5.10;;;14.80;99.90;;;;;;5034748;28;20207;-79
2023/06/02 00:25:04;;;;;;;7.23;5.40;;;14.90;99.90;;;;;;5030054;28;20187;-83
2023/06/02 00:27:30;;;;;;;11.57;5.07;;;14.90;99.90;;;;;;5030875;28;20485;-80
2023/06/02 00:29:55;;;;;;;6.53;4.73;;;14.90;99.90;;;;;;5036102;28;20488;-78
2023/06/02 00:32:21;;;;;;;7.93;4.70;;;14.90;99.90;;;;;;5043457;28;20218;-80
2023/06/02 00:34:46;;;;;;;10.80;4.60;;;14.90;99.90;;;;;;5042084;28;20181;-79
2023/06/02 00:37:12;;;;;;;6.20;5.53;;;14.90;99.90;;;;;;5040094;28;20276;-78
2023/06/02 00:39:37;;;;;;;8.97;4.17;;;14.90;99.90;;;;;;5033682;28;20215;-78
2023/06/02 00:42:04;;;;;;;5.23;4.67;;;14.90;99.90;;;;;;5043792;28;20243;-80
2023/06/02 00:44:30;;;;;;;6.50;4.90;;;14.90;99.90;;;;;;5040369;28;20191;-79
2023/06/02 00:46:56;;;;;;;8.03;5.00;;;14.90;99.90;;;;;;5040394;28;20461;-80
2023/06/02 00:49:22;;;;;;;9.00;4.57;;;14.90;99.90;;;;;;5043342;28;20214;-80
2023/06/02 00:51:48;;;;;;;7.00;5.20;;;14.90;99.90;;;;;;5029414;28;20270;-79
2023/06/02 00:54:17;;;;;;;10.77;5.50;;;14.80;99.90;;;;;;5034419;28;20486;-77
2023/06/02 00:56:43;;;;;;;8.00;5.37;;;14.80;99.90;;;;;;5040736;28;20468;-77
2023/06/02 00:59:11;;;;;;;5.60;4.60;;;14.90;99.90;;;;;;5037221;28;20534;-79
2023/06/02 01:01:38;;;;;;;6.83;4.50;;;14.90;99.90;;;;;;5034949;28;20196;-80
2023/06/02 01:04:05;;;;;;;6.97;4.83;;;14.90;99.90;;;;;;5031578;28;20462;-80
2023/06/02 01:06:35;;;;;;;9.17;5.57;;;14.90;99.90;;;;;;5036790;28;20464;-79
2023/06/02 01:09:07;;;;;;;7.97;5.50;;;14.90;99.90;;;;;;5039609;28;20473;-79
2023/06/02 01:11:33;;;;;;;6.97;4.73;;;14.90;99.90;;;;;;5021823;28;20474;-79
2023/06/02 01:13:59;;;;;;;9.37;4.70;;;14.90;99.90;;;;;;5037852;28;20438;-79
2023/06/02 01:16:29;;;;;;;8.77;5.20;;;14.90;99.90;;;;;;5039387;28;20199;-79
2023/06/02 01:18:55;;;;;;;11.43;4.67;;;14.80;99.90;;;;;;5025581;28;20438;-79
2023/06/02 01:21:23;;;;;;;8.37;4.80;;;14.80;99.90;;;;;;5038136;28;20463;-82
2023/06/02 01:23:53;;;;;;;7.90;4.40;;;14.80;99.90;;;;;;5035294;28;20222;-80
2023/06/02 01:26:19;;;;;;;8.40;5.80;;;14.70;99.90;;;;;;5034204;28;20494;-80
2023/06/02 01:28:45;;;;;;;13.13;5.07;;;14.70;99.90;;;;;;5043504;28;20466;-80
2023/06/02 01:31:18;;;;;;;7.10;5.80;;;14.70;99.90;;;;;;5041297;28;20486;-79
2023/06/02 01:34:08;;;;;;;7.13;5.23;;;14.70;99.90;;;;;;5037795;28;20962;-78
2023/06/02 01:36:37;;;;;;;6.43;4.93;;;14.60;99.90;;;;;;5044889;28;20466;-83
2023/06/02 01:39:05;;;;;;;6.70;4.90;;;14.60;99.90;;;;;;5038800;28;20427;-82
2023/06/02 01:41:32;;;;;;;9.60;4.83;;;14.50;99.90;;;;;;5046054;28;20455;-80
2023/06/02 01:43:59;;;;;;;7.17;5.00;;;14.50;99.90;;;;;;5028754;28;20442;-83
2023/06/02 01:46:26;;;;;;;10.60;5.43;;;14.50;99.90;;;;;;5037946;28;20525;-80
2023/06/02 01:48:55;;;;;;;7.87;4.87;;;14.50;99.90;;;;;;5038133;28;20446;-81
2023/06/02 01:51:21;;;;;;;11.60;5.90;;;14.50;99.90;;;;;;5044518;28;20497;-82
2023/06/02 01:53:47;;;;;;;6.47;5.67;;;14.50;99.90;;;;;;5044472;28;20433;-82
2023/06/02 01:56:12;;;;;;;7.37;5.57;;;14.40;99.90;;;;;;5038817;28;20457;-80
2023/06/02 01:58:38;;;;;;;6.23;5.00;;;14.40;99.90;;;;;;5037237;28;20461;-79
2023/06/02 02:01:04;;;;;;;13.77;6.10;;;14.40;99.90;;;;;;5035031;28;20191;-80
2023/06/02 02:03:30;;;;;;;7.97;5.20;;;14.40;99.90;;;;;;5042385;28;20169;-79
2023/06/02 02:05:56;;;;;;;9.53;5.77;;;14.30;99.90;;;;;;5040924;28;20211;-78
2023/06/02 02:08:22;;;;;;;8.77;5.07;;;14.30;99.90;;;;;;5035478;28;20439;-81
2023/06/02 02:10:48;;;;;;;10.07;5.63;;;14.30;99.90;;;;;;5031872;28;20492;-80
2023/06/02 02:13:13;;;;;;;6.17;5.47;;;14.30;99.90;;;;;;5042346;28;20255;-81
2023/06/02 02:15:39;;;;;;;13.03;5.60;;;14.30;99.90;;;;;;5039839;28;21049;-78
2023/06/02 02:18:05;;;;;;;9.33;5.43;;;14.30;99.90;;;;;;5039640;28;20210;-79
2023/06/02 02:20:30;;;;;;;8.00;5.93;;;14.30;99.90;;;;;;5036797;28;20178;-78
2023/06/02 02:22:56;;;;;;;9.43;5.90;;;14.20;99.90;;;;;;5035341;28;20185;-80
2023/06/02 02:25:22;;;;;;;9.63;5.70;;;14.30;99.90;;;;;;5043586;28;20185;-79
2023/06/02 02:27:47;;;;;;;6.87;5.57;;;14.30;99.90;;;;;;5023319;28;20199;-80
2023/06/02 02:30:13;;;;;;;9.20;6.23;;;14.20;99.90;;;;;;5036370;28;20194;-81
2023/06/02 02:32:41;;;;;;;12.37;6.73;;;14.20;99.90;;;;;;5036448;28;20238;-79
2023/06/02 02:35:07;;;;;;;16.10;7.30;;;14.20;99.90;;;;;;5026725;28;20182;-80
2023/06/02 02:37:33;;;;;;;15.43;6.57;;;14.20;99.90;;;;;;5024851;28;20457;-80
2023/06/02 02:39:59;;;;;;;8.13;6.33;;;14.10;99.90;;;;;;5036237;28;20438;-80
2023/06/02 02:42:25;;;;;;;11.10;6.93;;;14.10;99.90;;;;;;5021933;28;20555;-80
2023/06/02 02:44:50;;;;;;;8.80;7.20;;;14.10;99.90;;;;;;5025806;28;20548;-80
2023/06/02 02:47:16;;;;;;;8.13;6.50;;;14.10;99.90;;;;;;5041293;28;20214;-80
2023/06/02 02:49:41;;;;;;;7.30;6.00;;;14.00;99.90;;;;;;5042647;28;20205;-79
2023/06/02 02:52:07;;;;;;;9.50;5.50;;;14.00;99.90;;;;;;5036320;28;20293;-80
2023/06/02 02:54:32;;;;;;;8.43;5.40;;;13.90;99.90;;;;;;5031852;28;20230;-79
2023/06/02 02:56:58;;;;;;;11.67;6.77;;;13.90;99.90;;;;;;5025227;28;20214;-80
2023/06/02 02:59:23;;;;;;;10.80;7.00;;;13.90;99.90;;;;;;5039886;28;20193;-81
2023/06/02 03:01:49;;;;;;;8.17;6.17;;;13.90;99.90;;;;;;5043229;28;20187;-80
2023/06/02 03:04:24;;;;;;;17.80;6.57;;;13.90;99.90;;;;;;5043351;28;20664;-80
2023/06/02 03:06:52;;;;;;;8.40;5.53;;;13.90;99.90;;;;;;5036010;28;20760;-80
2023/06/02 03:09:19;;;;;;;8.90;4.83;;;13.90;99.90;;;;;;5034370;28;20510;-79
2023/06/02 03:11:45;;;;;;;9.00;5.33;;;13.90;99.90;;;;;;5036133;28;20462;-80
2023/06/02 03:14:11;;;;;;;8.10;5.80;;;13.90;99.90;;;;;;5036115;28;20437;-80
2023/06/02 03:16:40;;;;;;;12.43;5.03;;;14.00;99.90;;;;;;5035655;28;20484;-79
2023/06/02 03:19:06;;;;;;;8.00;4.97;;;13.90;99.90;;;;;;5021111;28;20441;-80
2023/06/02 03:21:41;;;;;;;9.53;5.37;;;13.90;99.90;;;;;;5035264;28;20437;-80
2023/06/02 03:24:15;;;;;;;10.50;5.87;;;13.90;99.90;;;;;;5029039;28;20455;-80
2023/06/02 03:26:41;;;;;;;13.50;4.50;;;13.90;99.90;;;;;;5029212;28;20470;-79
2023/06/02 03:29:10;;;;;;;7.30;4.37;;;13.90;99.90;;;;;;5039146;28;20575;-79
2023/06/02 03:31:36;;;;;;;8.57;5.57;;;13.90;99.90;;;;;;5036538;28;20519;-78
2023/06/02 03:34:03;;;;;;;9.23;6.00;;;13.90;99.90;;;;;;5038894;28;20945;-80
2023/06/02 03:36:29;;;;;;;10.13;5.27;;;13.80;99.90;;;;;;5023019;28;20469;-77
2023/06/02 03:38:55;;;;;;;14.30;5.47;;;13.80;99.90;;;;;;5026730;28;20438;-78
2023/06/02 03:41:21;;;;;;;8.50;5.40;;;13.90;99.90;;;;;;5026808;28;20452;-80
2023/06/02 03:43:47;;;;;;;7.83;5.23;;;13.90;99.90;;;;;;5030671;28;20273;-78
2023/06/02 03:46:13;;;;;;;12.83;6.27;;;13.90;99.90;;;;;;5032600;28;20504;-80
2023/06/02 03:48:38;;;;;;;9.13;5.10;;;13.90;99.90;;;;;;5033679;28;20190;-79
2023/06/02 03:51:04;;;;;;;11.07;5.77;;;13.90;99.90;;;;;;5040371;28;20225;-80
2023/06/02 03:53:30;;;;;;;11.33;5.93;;;13.90;99.90;;;;;;5037039;28;20931;-79
2023/06/02 03:55:56;;;;;;;20.60;7.70;;;13.80;99.90;;;;;;5039152;28;20238;-78
2023/06/02 03:58:23;;;;;;;6.30;5.37;;;13.80;99.90;;;;;;5036974;28;20956;-80
2023/06/02 04:00:49;;;;;;;12.43;5.23;;;13.80;99.90;;;;;;5035730;28;20594;-79
2023/06/02 04:03:14;;;;;;;11.67;4.87;;;13.80;99.90;;;;;;5018756;28;20474;-78
2023/06/02 04:05:40;;;;;;;14.30;5.30;;;13.80;99.90;;;;;;5035019;28;20191;-77
2023/06/02 04:08:07;;;;;;;8.17;4.60;;;13.80;99.90;;;;;;5032069;28;20307;-79
2023/06/02 04:10:32;;;;;;;15.77;5.47;;;13.80;99.90;;;;;;5031465;28;20508;-79
2023/06/02 04:12:58;;;;;;;8.70;5.60;;;13.80;99.90;;;;;;5027912;28;20484;-78
2023/06/02 04:15:24;;;;;;;10.07;5.37;;;13.80;99.90;;;;;;5027422;28;20178;-80
2023/06/02 04:17:49;;;;;;;11.33;4.87;;;13.80;99.90;;;;;;5034535;28;20856;-79
2023/06/02 04:20:15;;;;;;;8.23;5.70;;;13.80;99.90;;;;;;5033131;28;20189;-80
2023/06/02 04:22:41;;;;;;;9.83;5.13;;;13.90;99.90;;;;;;5031360;28;20582;-80
2023/06/02 04:25:07;;;;;;;9.53;5.67;;;13.80;99.90;;;;;;5031511;28;20832;-79
2023/06/02 04:27:32;;;;;;;9.77;5.53;;;13.90;99.90;;;;;;5034351;28;20202;-79
2023/06/02 04:29:58;;;;;;;10.80;5.73;;;13.90;99.90;;;;;;5033749;28;20202;-78
2023/06/02 04:32:23;;;;;;;15.00;7.20;;;13.90;99.90;;;;;;5031611;28;20254;-81
2023/06/02 04:34:50;;;;;;;15.30;6.60;;;13.90;99.90;;;;;;5027394;28;20569;-78
2023/06/02 04:37:16;;;;;;;14.83;6.27;;;13.90;99.90;;;;;;5027904;28;20449;-80
2023/06/02 04:39:46;;;;;;;10.53;5.97;;;14.00;99.90;;;;;;5033983;28;20491;-80
2023/06/02 04:42:15;;;;;;;12.07;6.40;;;14.00;99.90;;;;;;5026386;28;20219;-80
2023/06/02 04:44:42;;;;;;;15.40;7.80;;;14.00;99.90;;;;;;5023055;28;20791;-79
2023/06/02 04:47:08;;;;;;;11.37;7.87;;;14.00;99.90;;;;;;5014589;28;20455;-80
2023/06/02 04:49:33;;;;;;;15.87;8.90;;;14.00;99.90;;;;;;5028677;28;20555;-79
2023/06/02 04:51:59;;;;;;;13.47;8.43;;;14.10;99.90;;;;;;5032275;28;20190;-79
2023/06/02 04:54:24;;;;;;;11.73;8.33;;;14.10;99.90;;;;;;5026665;28;20188;-79
2023/06/02 04:56:50;;;;;;;11.10;7.50;;;14.10;99.90;;;;;;5021281;28;20215;-79
2023/06/02 04:59:15;;;;;;;13.67;7.00;;;14.20;99.90;;;;;;5029929;28;20184;-79
2023/06/02 05:01:41;;;;;;;8.97;6.10;;;14.10;99.90;;;;;;5037710;28;20200;-79
2023/06/02 05:04:06;;;;;;;11.43;6.20;;;14.10;99.90;;;;;;5033131;28;20199;-79
2023/06/02 05:06:32;;;;;;;13.30;5.80;;;14.10;99.90;;;;;;5032952;28;20205;-79
2023/06/02 05:08:59;;;;;;;17.10;5.97;;;14.10;99.90;;;;;;5037441;28;20256;-80
2023/06/02 05:11:24;;;;;;;8.60;4.47;;;14.10;99.90;;;;;;5038815;28;20464;-78
2023/06/02 05:13:50;;;;;;;15.60;6.10;;;14.20;99.90;;;;;;5036212;28;20483;-79
2023/06/02 05:16:17;;;;;;;6.83;5.10;;;14.20;99.90;;;;;;5037682;28;20225;-78
2023/06/02 05:18:42;;;;;;;15.33;5.80;;;14.30;99.90;;;;;;5030823;28;20447;-80
2023/06/02 05:21:08;;;;;;;9.20;4.37;;;14.30;99.90;;;;;;5031943;28;20464;-77
2023/06/02 05:23:36;;;;;;;14.67;5.53;;;14.30;99.90;;;;;;5034680;28;20179;-78
2023/06/02 05:26:02;;;;;;;13.33;5.50;;;14.40;99.90;;;;;;5028851;28;20453;-80
2023/06/02 05:28:28;;;;;;;11.07;6.13;;;14.40;99.90;;;;;;5024992;28;20445;-80
2023/06/02 05:30:53;;;;;;;9.10;5.57;;;14.50;99.90;;;;;;5029450;28;20437;-79
2023/06/02 05:33:19;;;;;;;12.67;5.90;;;14.50;99.90;;;;;;5037612;28;20593;-79
2023/06/02 05:35:44;;;;;;;10.27;5.07;;;14.50;99.90;;;;;;5015893;28;20252;-80
2023/06/02 05:38:10;;;;;;;14.80;5.53;;;14.60;99.90;;;;;;5032173;28;20209;-77
2023/06/02 05:40:35;;;;;;;11.37;5.70;;;14.50;99.90;;;;;;5023239;28;20199;-80
2023/06/02 05:43:01;;;;;;;11.00;6.13;;;14.50;99.90;;;;;;5017989;28;20841;-80
2023/06/02 05:45:26;;;;;;;11.90;5.47;;;14.50;99.90;;;;;;5034978;28;20606;-79
2023/06/02 05:47:52;;;;;;;12.13;5.70;;;14.40;99.90;;;;;;5030778;28;20225;-78
2023/06/02 05:50:17;;;;;;;14.63;6.17;;;14.30;99.90;;;;;;5028590;28;20190;-79
2023/06/02 05:52:43;;;;;;;14.80;4.90;;;14.30;99.90;;;;;;5027422;28;20195;-79
2023/06/02 05:55:08;;;;;;;12.43;5.93;;;14.30;99.90;;;;;;5031701;28;20736;-79
2023/06/02 05:57:36;;;;;;;11.10;6.63;;;14.30;99.90;;;;;;5033091;28;20205;-80
2023/06/02 06:00:01;;;;;;;9.83;4.90;;;14.40;99.90;;;;;;5036048;28;20174;-80
2023/06/02 06:02:27;;;;;;;16.40;4.60;;;14.40;99.90;;;;;;5031601;28;20473;-79
2023/06/02 06:04:52;;;;;;;10.63;4.90;;;14.50;99.90;;;;;;5036310;28;20254;-79
2023/06/02 06:07:18;;;;;;;14.90;5.90;;;14.50;99.90;;;;;;5020391;28;20285;-80
2023/06/02 06:09:43;;;;;;;12.57;4.40;;;14.60;99.90;;;;;;5039014;28;20179;-79
2023/06/02 06:12:09;;;;;;;11.87;4.67;;;14.80;99.90;;;;;;5036993;28;20183;-80
2023/06/02 06:14:34;;;;;;;13.77;5.23;;;14.90;99.90;;;;;;5041205;28;20250;-78
2023/06/02 06:17:00;;;;;;;14.30;5.43;;;14.90;99.90;;;;;;5034328;28;20489;-81
2023/06/02 06:19:25;;;;;;;16.00;5.90;;;14.90;99.90;;;;;;5026764;28;20185;-78
2023/06/02 06:21:51;;;;;;;12.17;6.00;;;14.90;99.90;;;;;;5039379;28;20208;-81
2023/06/02 06:24:16;;;;;;;9.73;5.53;;;15.00;99.90;;;;;;5042229;28;20216;-81
2023/06/02 06:26:42;;;;;;;14.23;5.10;;;15.10;99.60;;;;;;5042108;28;20708;-80
2023/06/02 06:29:07;;;;;;;8.50;4.63;;;15.30;99.60;;;;;;5022402;28;20201;-78
2023/06/02 06:31:33;;;;;;;13.77;5.90;;;15.40;99.10;;;;;;5043067;28;20189;-79
2023/06/02 06:33:59;;;;;;;12.33;5.37;;;15.60;98.40;;;;;;5019276;28;20192;-80
2023/06/02 06:36:25;;;;;;;12.43;5.40;;;15.70;97.40;;;;;;5040155;28;20213;-78
2023/06/02 06:38:50;;;;;;;11.50;6.23;;;15.80;97.00;;;;;;5030025;28;20474;-82
2023/06/02 06:41:17;;;;;;;8.33;5.57;;;15.90;96.60;;;;;;5038613;28;20224;-78
2023/06/02 06:43:43;;;;;;;14.90;6.40;;;16.00;95.20;;;;;;5041783;28;20191;-78
2023/06/02 06:46:09;;;;;;;9.90;5.30;;;16.00;94.20;;;;;;5038846;28;20488;-80
2023/06/02 06:48:34;;;;;;;15.60;5.70;;;16.00;93.80;;;;;;5036152;28;20189;-80
2023/06/02 06:51:00;;;;;;;16.30;6.57;;;16.10;93.00;;;;;;5034118;28;20181;-80
2023/06/02 06:53:27;;;;;;;16.23;6.77;;;16.20;92.00;;;;;;5031766;28;20200;-81
2023/06/02 06:55:53;;;;;;;14.10;5.77;;;16.20;99.40;;;;;;5036979;28;20205;-80
2023/06/02 06:58:18;;;;;;;11.57;5.80;;;16.30;91.80;;;;;;5038532;28;21045;-81
2023/06/02 07:00:44;;;;;;;13.10;5.50;;;16.40;90.70;;;;;;5039597;28;20208;-79
2023/06/02 07:03:10;;;;;;;13.20;5.30;;;16.60;90.50;;;;;;5036288;28;20316;-80
2023/06/02 07:05:35;;;;;;;14.23;5.67;;;16.70;90.20;;;;;;5036445;28;20183;-79
2023/06/02 07:08:01;;;;;;;9.90;5.53;;;16.80;89.30;;;;;;5032118;28;20182;-80
2023/06/02 07:10:27;;;;;;;11.57;5.67;;;16.90;86.30;;;;;;5010250;28;20450;-80
2023/06/02 07:12:52;;;;;;;15.60;6.53;;;17.00;84.70;;;;;;5016748;28;20181;-78
2023/06/02 07:15:18;;;;;;;20.87;5.60;;;17.10;85.10;;;;;;5038010;28;20186;-81
2023/06/02 07:17:43;;;;;;;14.73;6.60;;;17.30;82.20;;;;;;5036037;28;20220;-80
2023/06/02 07:20:10;;;;;;;19.80;6.70;;;17.50;81.30;;;;;;5037977;28;20196;-79
2023/06/02 07:22:36;;;;;;;13.93;6.67;;;17.60;78.70;;;;;;5037087;28;20247;-79
2023/06/02 07:25:03;;;;;;;10.07;6.30;;;17.70;76.60;;;;;;5038829;28;21002;-80
2023/06/02 07:27:29;;;;;;;16.83;6.20;;;17.70;74.90;;;;;;5036321;28;20449;-79
2023/06/02 07:29:55;;;;;;;15.53;5.90;;;17.80;73.20;;;;;;5041012;28;20432;-80
2023/06/02 07:32:20;;;;;;;12.87;5.50;;;17.90;72.50;;;;;;5041541;28;20464;-80
2023/06/02 07:34:46;;;;;;;14.00;6.97;;;17.90;71.30;;;;;;5031639;28;20179;-80
2023/06/02 07:37:14;;;;;;;9.63;5.70;;;18.10;70.50;;;;;;5033352;28;20267;-79
2023/06/02 07:39:39;;;;;;;11.10;5.60;;;18.20;70.40;;;;;;5036409;28;20459;-79
2023/06/02 07:42:06;;;;;;;9.40;5.50;;;18.20;68.20;;;;;;5037518;28;20466;-82
2023/06/02 07:44:31;;;;;;;10.63;5.60;;;18.30;66.70;;;;;;5022350;28;20197;-80
2023/06/02 07:46:57;;;;;;;10.80;6.53;;;18.40;66.20;;;;;;5040635;28;20451;-78
2023/06/02 07:49:22;;;;;;;9.87;5.90;;;18.60;67.60;;;;;;5022480;28;20734;-80
2023/06/02 07:51:48;;;;;;;13.83;6.03;;;18.80;65.40;;;;;;5038611;28;20333;-79
2023/06/02 07:54:14;;;;;;;13.77;5.53;;;19.00;64.90;;;;;;5017062;28;20239;-81
2023/06/02 07:56:39;;;;;;;12.10;6.40;;;19.10;64.70;;;;;;5036241;28;20207;-78
2023/06/02 07:59:05;;;;;;;14.53;7.80;;;19.10;62.60;;;;;;5040561;28;20634;-80
2023/06/02 08:01:31;;;;;;;13.73;7.30;;;19.00;60.60;;;;;;5024344;28;20239;-81
2023/06/02 08:03:56;;;;;;;13.77;7.87;;;19.10;59.70;;;;;;5019532;28;20209;-81
2023/06/02 08:06:22;;;;;;;11.60;7.13;;;19.20;59.10;;;;;;5019709;28;20199;-79
2023/06/02 08:08:47;;;;;;;25.47;13.47;;;19.20;57.70;;;;;;5031820;28;20304;-80
2023/06/02 08:11:13;;;;;;;15.33;10.20;;;19.30;57.30;;;;;;5010799;28;20190;-80
2023/06/02 08:13:39;;;;;;;16.20;8.70;;;19.30;56.60;;;;;;5014658;28;20188;-80
2023/06/02 08:16:05;;;;;;;13.53;8.17;;;19.30;56.80;;;;;;5035501;28;20451;-81
2023/06/02 08:18:31;;;;;;;18.93;15.30;;;19.40;56.10;;;;;;5036586;28;20864;-80
2023/06/02 08:20:57;;;;;;;21.60;14.80;;;19.30;54.50;;;;;;5016732;28;20450;-80
2023/06/02 08:23:22;;;;;;;19.53;14.73;;;19.40;54.40;;;;;;5031054;28;20185;-78
2023/06/02 08:25:48;;;;;;;20.83;16.00;;;19.50;53.00;;;;;;5034130;28;20924;-78
2023/06/02 08:28:14;;;;;;;22.33;15.93;;;19.60;53.00;;;;;;5037437;28;20195;-79
2023/06/02 08:30:42;;;;;;;22.73;15.57;;;19.80;52.00;;;;;;5025784;28;20193;-79
2023/06/02 08:33:08;;;;;;;20.57;16.07;;;20.00;51.60;;;;;;5013064;28;20191;-78
2023/06/02 08:35:36;;;;;;;24.10;16.87;;;20.10;51.50;;;;;;5016866;28;20440;-81
2023/06/02 08:38:03;;;;;;;21.70;17.03;;;20.30;52.00;;;;;;5026752;28;20212;-81
2023/06/02 08:40:38;;;;;;;21.93;16.43;;;20.50;51.30;;;;;;5043308;28;20510;-79
2023/06/02 08:43:12;;;;;;;21.43;16.30;;;20.60;49.80;;;;;;5040712;28;20444;-80
2023/06/02 08:45:48;;;;;;;17.60;15.83;;;20.90;49.00;;;;;;5042121;28;20437;-78
2023/06/02 08:48:17;;;;;;;22.13;16.30;;;21.00;62.20;;;;;;5039029;28;20456;-81
2023/06/02 08:50:47;;;;;;;21.73;15.10;;;21.10;47.40;;;;;;5039241;28;20435;-80
2023/06/02 08:53:15;;;;;;;18.57;15.40;;;21.00;45.70;;;;;;5036075;28;20438;-80
2023/06/02 08:55:42;;;;;;;17.80;14.50;;;20.90;45.00;;;;;;5039924;28;20493;-80
2023/06/02 08:58:11;;;;;;;22.70;15.43;;;20.90;44.40;;;;;;5043662;28;20444;-78
2023/06/02 09:00:40;;;;;;;18.70;14.57;;;21.00;43.80;;;;;;5039431;28;20470;-79
2023/06/02 09:03:06;;;;;;;22.50;16.50;;;21.30;43.40;;;;;;5032621;28;20459;-81
2023/06/02 09:05:32;;;;;;;18.33;16.13;;;21.50;44.30;;;;;;5039646;28;20448;-81
2023/06/02 09:08:12;;;;;;;20.63;15.43;;;21.80;44.20;;;;;;5040764;28;20267;-79
2023/06/02 09:10:41;;;;;;;18.87;13.63;;;22.20;43.90;;;;;;5038377;28;20568;-80
2023/06/02 09:13:29;;;;;;;17.93;13.90;;;22.40;45.20;;;;;;5041606;28;20457;-79
2023/06/02 09:16:03;;;;;;;15.97;14.27;;;22.70;43.50;;;;;;5037657;28;20458;-80
2023/06/02 09:18:29;;;;;;;14.83;13.27;;;22.90;42.80;;;;;;5044153;28;20448;-79
2023/06/02 09:20:58;;;;;;;13.77;11.77;;;23.20;42.80;;;;;;5041723;28;20448;-80
2023/06/02 09:23:43;;;;;;;17.90;12.17;;;23.30;40.60;;;;;;5034944;28;20435;-81
2023/06/02 09:26:19;;;;;;;20.97;11.83;;;23.20;39.10;;;;;;5034670;28;21002;-81
2023/06/02 09:28:45;;;;;;;15.43;13.07;;;23.20;38.00;;;;;;5039380;28;20955;-80
2023/06/02 09:31:13;;;;;;;16.97;12.90;;;23.50;37.60;;;;;;5042310;28;20489;-81
2023/06/02 09:33:38;;;;;;;17.33;13.47;;;26.40;46.80;;;;;;5040966;28;20295;-79
2023/06/02 09:36:20;;;;;;;16.27;13.70;;;27.60;48.30;;;;;;5038596;28;20464;-81
2023/06/02 09:38:46;;;;;;;18.50;16.00;;;27.20;44.30;;;;;;5039414;28;20263;-80
2023/06/02 09:41:15;;;;;;;19.87;16.30;;;26.90;41.20;;;;;;5036389;28;20472;-80
2023/06/02 09:43:41;;;;;;;17.00;15.13;;;27.00;39.40;;;;;;5042096;28;20186;-80
2023/06/02 09:46:07;;;;;;;18.70;15.17;;;27.60;40.10;;;;;;5030673;28;20843;-79
2023/06/02 09:48:34;;;;;;;19.47;16.37;;;27.00;35.20;;;;;;5036543;28;20457;-79
2023/06/02 09:51:00;;;;;;;20.30;17.50;;;26.40;31.70;;;;;;5022667;28;20752;-80
2023/06/02 09:53:27;;;;;;;18.17;16.07;;;26.10;30.20;;;;;;5041566;28;20432;-81
2023/06/02 09:55:53;;;;;;;19.50;17.40;;;26.20;29.80;;;;;;5041610;28;20182;-80
2023/06/02 09:58:19;;;;;;;21.17;18.07;;;26.10;28.90;;;;;;5040137;28;20491;-79
2023/06/02 10:00:45;;;;;;;23.77;18.90;;;26.20;28.40;;;;;;5036747;28;20201;-80
2023/06/02 10:03:11;;;;;;;20.00;17.87;;;26.30;26.60;;;;;;5028489;28;20533;-80
2023/06/02 10:05:45;;;;;;;20.93;18.20;;;26.90;39.50;;;;;;5036035;28;20973;-79
2023/06/02 10:08:30;;;;;;;18.10;16.20;;;27.50;28.40;;;;;;5021672;28;20648;-81
2023/06/02 10:11:15;;;;;;;22.17;16.53;;;29.40;32.10;;;;;;5037733;28;20436;-82
2023/06/02 10:13:46;;;;;;;14.30;12.90;;;31.70;35.50;;;;;;5032069;28;20434;-81
2023/06/02 10:16:40;;;;;;;16.53;14.27;;;32.70;37.10;;;;;;5044682;28;20540;-80
2023/06/02 10:19:37;;;;;;;14.97;13.43;;;34.40;35.60;;;;;;5040928;28;20445;-80
2023/06/02 10:22:30;;;;;;;13.73;12.43;;;34.80;30.10;;;;;;5038624;28;20472;-80
2023/06/02 10:25:23;;;;;;;18.00;13.20;;;34.70;26.30;;;;;;5042773;28;20443;-83
2023/06/02 10:27:49;;;;;;;12.83;10.57;;;33.20;20.30;;;;;;5040110;28;20828;-79
2023/06/02 10:30:20;;;;;;;10.50;9.40;;;34.20;21.40;;;;;;5043892;28;20463;-81
2023/06/02 10:32:48;;;;;;;11.23;9.10;;;34.90;21.00;;;;;;5024291;28;20472;-82
2023/06/02 10:35:15;;;;;;;15.93;8.70;;;35.10;18.80;;;;;;5039607;28;20441;-81
2023/06/02 10:37:40;;;;;;;7.97;7.23;;;35.40;17.80;;;;;;5024834;28;20499;-82
2023/06/02 10:40:10;;;;;;;9.40;8.27;;;35.50;15.00;;;;;;5039384;28;20441;-82
2023/06/02 10:42:35;;;;;;;11.30;8.67;;;35.70;13.70;;;;;;5043026;28;20659;-81
2023/06/02 10:45:26;;;;;;;10.90;7.83;;;34.50;9.40;;;;;;5037983;28;20447;-81
2023/06/02 10:47:52;;;;;;;9.73;7.70;;;34.20;8.30;;;;;;5039793;28;20659;-83
2023/06/02 10:50:21;;;;;;;8.40;6.10;;;35.10;9.50;;;;;;5025298;28;20441;-81
2023/06/02 10:52:59;;;;;;;7.70;6.90;;;35.50;8.90;;;;;;5044956;28;20206;-81
2023/06/02 10:55:25;;;;;;;10.13;7.17;;;35.90;7.80;;;;;;5033433;28;20448;-80
2023/06/02 10:58:07;;;;;;;9.90;7.90;;;35.20;6.30;;;;;;5041619;28;20461;-82
2023/06/02 11:00:35;;;;;;;8.27;7.40;;;35.60;6.10;;;;;;5035647;28;20431;-81
2023/06/02 11:03:01;;;;;;;9.80;7.23;;;35.10;3.30;;;;;;5037015;28;20551;-82
2023/06/02 11:05:28;;;;;;;10.03;7.00;;;35.30;2.80;;;;;;5044518;28;20899;-81
2023/06/02 11:08:14;;;;;;;10.67;7.40;;;34.70;1.10;;;;;;5028219;28;20484;-82
2023/06/02 11:10:44;;;;;;;14.20;7.13;;;35.10;1.20;;;;;;5038145;28;20448;-82
2023/06/02 11:13:11;;;;;;;10.93;7.60;;;35.00;1.00;;;;;;5041349;28;20437;-80
2023/06/02 11:15:36;;;;;;;11.53;8.70;;;34.60;1.00;;;;;;5035133;28;20981;-83
2023/06/02 11:18:22;;;;;;;12.67;8.03;;;34.50;1.00;;;;;;5034776;28;20460;-81
2023/06/02 11:20:51;;;;;;;12.27;7.47;;;34.70;1.00;;;;;;5027497;28;20178;-82
2023/06/02 11:23:18;;;;;;;10.27;6.80;;;35.10;7.60;;;;;;5037807;28;20409;-80
2023/06/02 11:25:44;;;;;;;14.10;7.03;;;35.20;1.00;;;;;;5028282;28;20513;-80
2023/06/02 11:28:22;;;;;;;9.67;6.50;;;35.40;1.00;;;;;;5038470;28;20437;-80
2023/06/02 11:31:13;;;;;;;11.37;7.37;;;35.70;1.00;;;;;;5020097;28;20493;-79
2023/06/02 11:33:41;;;;;;;14.03;8.50;;;35.80;1.00;;;;;;5023091;28;20424;-82
2023/06/02 11:36:12;;;;;;;15.10;7.47;;;35.80;1.00;;;;;;5022604;28;20457;-81
2023/06/02 11:38:38;;;;;;;11.23;8.33;;;35.80;1.00;;;;;;5033870;28;20424;-78
2023/06/02 11:41:11;;;;;;;7.90;7.10;;;35.50;1.00;;;;;;5043094;28;20443;-82
2023/06/02 11:43:37;;;;;;;9.03;7.20;;;34.70;1.00;;;;;;5045945;28;20478;-82
2023/06/02 11:46:11;;;;;;;16.13;9.67;;;34.50;1.00;;;;;;5041910;28;20452;-81
2023/06/02 11:48:40;;;;;;;19.50;8.67;;;34.30;1.00;;;;;;5035768;28;20442;-80
2023/06/02 11:51:07;;;;;;;9.30;8.33;;;34.00;1.00;;;;;;5031295;28;20418;-82
2023/06/02 11:53:33;;;;;;;11.40;9.10;;;33.70;1.00;;;;;;5023823;28;20417;-82
2023/06/02 11:55:59;;;;;;;15.53;8.43;;;33.60;1.00;;;;;;5025238;28;20433;-83
2023/06/02 11:58:27;;;;;;;14.83;8.77;;;33.60;1.00;;;;;;5025560;28;20512;-81
2023/06/02 12:01:08;;;;;;;12.57;9.00;;;33.50;1.00;;;;;;5026650;28;20439;-83
2023/06/02 12:03:34;;;;;;;12.83;9.63;;;33.40;1.00;;;;;;5033306;28;20432;-81
2023/06/02 12:06:14;;;;;;;13.57;8.67;;;32.80;1.00;;;;;;5040847;28;20457;-82
2023/06/02 12:08:39;;;;;;;15.27;9.10;;;32.50;1.00;;;;;;5032697;28;20424;-81
2023/06/02 12:11:16;;;;;;;10.00;8.07;;;32.70;1.00;;;;;;5028210;28;20465;-83
2023/06/02 12:13:54;;;;;;;18.03;8.30;;;32.90;1.00;;;;;;5029494;28;20182;-82
2023/06/02 12:16:21;;;;;;;12.03;9.00;;;33.00;1.00;;;;;;5040394;28;20440;-82
2023/06/02 12:18:47;;;;;;;14.60;8.50;;;32.90;1.00;;;;;;5045678;28;20451;-82
2023/06/02 12:21:27;;;;;;;14.00;8.83;;;32.70;1.00;;;;;;5047926;28;20473;-80
2023/06/02 12:23:55;;;;;;;9.60;7.63;;;32.30;1.00;;;;;;5039923;28;20791;-80
2023/06/02 12:26:21;;;;;;;15.63;7.87;;;31.80;1.00;;;;;;5044015;28;20440;-80
2023/06/02 12:28:48;;;;;;;13.40;7.57;;;31.60;1.00;;;;;;5026670;28;20429;-79
2023/06/02 12:31:16;;;;;;;12.93;7.50;;;31.70;1.00;;;;;;5042889;28;20416;-80
2023/06/02 12:33:42;;;;;;;9.97;7.53;;;31.60;1.00;;;;;;5030498;28;20523;-81
2023/06/02 12:36:10;;;;;;;13.57;6.90;;;31.30;1.00;;;;;;5041681;28;20461;-81
2023/06/02 12:38:35;;;;;;;14.53;6.67;;;31.10;1.00;;;;;;5028826;28;20514;-81
2023/06/02 12:41:02;;;;;;;9.03;6.10;;;31.20;1.00;;;;;;5035395;28;20456;-80
2023/06/02 12:43:28;;;;;;;13.00;6.70;;;31.20;1.00;;;;;;5034689;28;20179;-81